sensor_id;sensor_type;location;lat;lon;timestamp;P1;durP1;ratioP1;P2;durP2;ratioP2
21611;SDS011;47005;52.292;13.452;2023-04-25T00:02:12;2.70;;;1.50;;
21611;SDS011;47005;52.292;13.452;2023-04-25T00:04:38;4.83;;;2.20;;
21611;SDS011;47005;52.292;13.452;2023-04-25T00:07:03;4.27;;;1.93;;
21611;SDS011;47005;52.292;13.452;2023-04-25T00:09:29;3.60;;;2.00;;
21611;SDS011;47005;52.292;13.452;2023-04-25T00:11:55;6.13;;;1.67;;
21611;SDS011;47005;52.292;13.452;2023-04-25T00:14:21;2.37;;;1.37;;
21611;SDS011;47005;52.292;13.452;2023-04-25T00:16:47;6.57;;;1.60;;
21611;SDS011;47005;52.292;13.452;2023-04-25T00:19:13;4.53;;;2.00;;
21611;SDS011;47005;52.292;13.452;2023-04-25T00:21:39;2.50;;;1.70;;
21611;SDS011;47005;52.292;13.452;2023-04-25T00:24:07;3.20;;;1.73;;
21611;SDS011;47005;52.292;13.452;2023-04-25T00:26:34;3.47;;;1.77;;
21611;SDS011;47005;52.292;13.452;2023-04-25T00:29:00;2.37;;;1.63;;
21611;SDS011;47005;52.292;13.452;2023-04-25T00:31:27;2.83;;;1.63;;
21611;SDS011;47005;52.292;13.452;2023-04-25T00:33:54;5.00;;;2.00;;
21611;SDS011;47005;52.292;13.452;2023-04-25T00:36:20;4.60;;;1.90;;
21611;SDS011;47005;52.292;13.452;2023-04-25T00:38:46;5.37;;;1.97;;
21611;SDS011;47005;52.292;13.452;2023-04-25T00:41:11;3.90;;;1.80;;
21611;SDS011;47005;52.292;13.452;2023-04-25T00:43:37;4.33;;;2.47;;
21611;SDS011;47005;52.292;13.452;2023-04-25T00:46:04;4.30;;;2.10;;
21611;SDS011;47005;52.292;13.452;2023-04-25T00:48:30;4.97;;;2.33;;
21611;SDS011;47005;52.292;13.452;2023-04-25T00:50:57;6.03;;;2.03;;
21611;SDS011;47005;52.292;13.452;2023-04-25T00:53:24;5.57;;;2.23;;
21611;SDS011;47005;52.292;13.452;2023-04-25T00:55:50;6.07;;;2.20;;
21611;SDS011;47005;52.292;13.452;2023-04-25T00:58:17;3.07;;;1.67;;
21611;SDS011;47005;52.292;13.452;2023-04-25T01:00:44;7.00;;;2.10;;
21611;SDS011;47005;52.292;13.452;2023-04-25T01:03:12;3.30;;;1.90;;
21611;SDS011;47005;52.292;13.452;2023-04-25T01:05:39;6.50;;;2.27;;
21611;SDS011;47005;52.292;13.452;2023-04-25T01:08:06;11.07;;;2.67;;
21611;SDS011;47005;52.292;13.452;2023-04-25T01:10:32;2.70;;;1.67;;
21611;SDS011;47005;52.292;13.452;2023-04-25T01:12:57;6.17;;;2.20;;
21611;SDS011;47005;52.292;13.452;2023-04-25T01:15:23;6.77;;;2.03;;
21611;SDS011;47005;52.292;13.452;2023-04-25T01:17:49;5.03;;;2.40;;
21611;SDS011;47005;52.292;13.452;2023-04-25T01:20:15;6.27;;;2.40;;
21611;SDS011;47005;52.292;13.452;2023-04-25T01:22:40;6.13;;;2.10;;
21611;SDS011;47005;52.292;13.452;2023-04-25T01:25:07;5.40;;;2.20;;
21611;SDS011;47005;52.292;13.452;2023-04-25T01:27:33;10.87;;;2.53;;
21611;SDS011;47005;52.292;13.452;2023-04-25T01:30:00;3.67;;;2.20;;
21611;SDS011;47005;52.292;13.452;2023-04-25T01:32:26;4.73;;;1.80;;
21611;SDS011;47005;52.292;13.452;2023-04-25T01:34:52;9.47;;;2.10;;
21611;SDS011;47005;52.292;13.452;2023-04-25T01:37:18;4.10;;;1.93;;
21611;SDS011;47005;52.292;13.452;2023-04-25T01:39:44;6.30;;;2.63;;
21611;SDS011;47005;52.292;13.452;2023-04-25T01:42:10;5.17;;;1.83;;
21611;SDS011;47005;52.292;13.452;2023-04-25T01:44:38;7.70;;;2.33;;
21611;SDS011;47005;52.292;13.452;2023-04-25T01:47:03;3.60;;;2.10;;
21611;SDS011;47005;52.292;13.452;2023-04-25T01:49:29;4.23;;;1.60;;
21611;SDS011;47005;52.292;13.452;2023-04-25T01:51:55;4.97;;;2.30;;
21611;SDS011;47005;52.292;13.452;2023-04-25T01:54:20;5.83;;;2.23;;
21611;SDS011;47005;52.292;13.452;2023-04-25T01:56:49;4.70;;;2.20;;
21611;SDS011;47005;52.292;13.452;2023-04-25T01:59:16;3.80;;;1.60;;
21611;SDS011;47005;52.292;13.452;2023-04-25T02:01:43;4.97;;;2.07;;
21611;SDS011;47005;52.292;13.452;2023-04-25T02:04:09;4.40;;;2.13;;
21611;SDS011;47005;52.292;13.452;2023-04-25T02:06:34;4.20;;;2.37;;
21611;SDS011;47005;52.292;13.452;2023-04-25T02:09:00;7.33;;;2.17;;
21611;SDS011;47005;52.292;13.452;2023-04-25T02:11:25;3.67;;;2.37;;
21611;SDS011;47005;52.292;13.452;2023-04-25T02:13:51;3.73;;;2.00;;
21611;SDS011;47005;52.292;13.452;2023-04-25T02:16:17;4.67;;;2.47;;
21611;SDS011;47005;52.292;13.452;2023-04-25T02:18:43;6.23;;;2.20;;
21611;SDS011;47005;52.292;13.452;2023-04-25T02:21:10;4.80;;;2.37;;
21611;SDS011;47005;52.292;13.452;2023-04-25T02:23:36;7.60;;;2.53;;
21611;SDS011;47005;52.292;13.452;2023-04-25T02:26:02;5.03;;;2.50;;
21611;SDS011;47005;52.292;13.452;2023-04-25T02:28:28;6.93;;;2.27;;
21611;SDS011;47005;52.292;13.452;2023-04-25T02:30:55;4.83;;;2.50;;
21611;SDS011;47005;52.292;13.452;2023-04-25T02:33:20;4.30;;;2.27;;
21611;SDS011;47005;52.292;13.452;2023-04-25T02:35:46;6.37;;;2.30;;
21611;SDS011;47005;52.292;13.452;2023-04-25T02:38:12;7.33;;;3.17;;
21611;SDS011;47005;52.292;13.452;2023-04-25T02:40:37;8.27;;;2.50;;
21611;SDS011;47005;52.292;13.452;2023-04-25T02:43:03;6.10;;;2.57;;
21611;SDS011;47005;52.292;13.452;2023-04-25T02:45:29;5.07;;;2.43;;
21611;SDS011;47005;52.292;13.452;2023-04-25T02:47:54;6.03;;;2.33;;
21611;SDS011;47005;52.292;13.452;2023-04-25T02:50:20;6.57;;;2.47;;
21611;SDS011;47005;52.292;13.452;2023-04-25T02:52:46;3.40;;;2.13;;
21611;SDS011;47005;52.292;13.452;2023-04-25T02:55:12;6.93;;;3.17;;
21611;SDS011;47005;52.292;13.452;2023-04-25T02:57:38;6.43;;;3.00;;
21611;SDS011;47005;52.292;13.452;2023-04-25T03:00:04;5.00;;;3.13;;
21611;SDS011;47005;52.292;13.452;2023-04-25T03:02:30;6.60;;;2.90;;
21611;SDS011;47005;52.292;13.452;2023-04-25T03:04:56;5.23;;;3.27;;
21611;SDS011;47005;52.292;13.452;2023-04-25T03:07:22;7.37;;;2.73;;
21611;SDS011;47005;52.292;13.452;2023-04-25T03:09:47;10.60;;;2.73;;
21611;SDS011;47005;52.292;13.452;2023-04-25T03:12:13;5.17;;;2.70;;
21611;SDS011;47005;52.292;13.452;2023-04-25T03:14:39;8.57;;;3.13;;
21611;SDS011;47005;52.292;13.452;2023-04-25T03:17:04;6.00;;;2.73;;
21611;SDS011;47005;52.292;13.452;2023-04-25T03:19:30;6.43;;;2.23;;
21611;SDS011;47005;52.292;13.452;2023-04-25T03:21:56;7.67;;;3.03;;
21611;SDS011;47005;52.292;13.452;2023-04-25T03:24:21;5.57;;;2.90;;
21611;SDS011;47005;52.292;13.452;2023-04-25T03:26:47;7.47;;;3.17;;
21611;SDS011;47005;52.292;13.452;2023-04-25T03:29:13;8.00;;;3.00;;
21611;SDS011;47005;52.292;13.452;2023-04-25T03:31:38;9.17;;;2.80;;
21611;SDS011;47005;52.292;13.452;2023-04-25T03:34:04;4.97;;;2.73;;
21611;SDS011;47005;52.292;13.452;2023-04-25T03:36:30;7.77;;;2.30;;
21611;SDS011;47005;52.292;13.452;2023-04-25T03:38:55;7.13;;;3.87;;
21611;SDS011;47005;52.292;13.452;2023-04-25T03:41:24;7.30;;;3.10;;
21611;SDS011;47005;52.292;13.452;2023-04-25T03:43:50;5.27;;;3.53;;
21611;SDS011;47005;52.292;13.452;2023-04-25T03:46:15;12.10;;;2.67;;
21611;SDS011;47005;52.292;13.452;2023-04-25T03:48:41;6.80;;;2.90;;
21611;SDS011;47005;52.292;13.452;2023-04-25T03:51:07;7.67;;;3.33;;
21611;SDS011;47005;52.292;13.452;2023-04-25T03:53:32;6.90;;;3.03;;
21611;SDS011;47005;52.292;13.452;2023-04-25T03:56:01;6.70;;;3.20;;
21611;SDS011;47005;52.292;13.452;2023-04-25T03:58:26;7.10;;;3.23;;
21611;SDS011;47005;52.292;13.452;2023-04-25T04:00:52;6.30;;;3.30;;
21611;SDS011;47005;52.292;13.452;2023-04-25T04:03:18;5.60;;;2.50;;
21611;SDS011;47005;52.292;13.452;2023-04-25T04:05:43;4.97;;;3.07;;
21611;SDS011;47005;52.292;13.452;2023-04-25T04:08:10;8.40;;;2.97;;
21611;SDS011;47005;52.292;13.452;2023-04-25T04:10:35;4.27;;;2.60;;
21611;SDS011;47005;52.292;13.452;2023-04-25T04:13:01;4.50;;;2.40;;
21611;SDS011;47005;52.292;13.452;2023-04-25T04:15:27;6.00;;;3.20;;
21611;SDS011;47005;52.292;13.452;2023-04-25T04:17:52;8.53;;;3.07;;
21611;SDS011;47005;52.292;13.452;2023-04-25T04:20:19;6.40;;;2.70;;
21611;SDS011;47005;52.292;13.452;2023-04-25T04:22:44;6.77;;;3.17;;
21611;SDS011;47005;52.292;13.452;2023-04-25T04:25:10;6.13;;;3.27;;
21611;SDS011;47005;52.292;13.452;2023-04-25T04:27:36;6.37;;;3.20;;
21611;SDS011;47005;52.292;13.452;2023-04-25T04:30:02;11.37;;;3.23;;
21611;SDS011;47005;52.292;13.452;2023-04-25T04:32:29;4.53;;;3.27;;
21611;SDS011;47005;52.292;13.452;2023-04-25T04:34:55;7.43;;;3.37;;
21611;SDS011;47005;52.292;13.452;2023-04-25T04:37:21;4.10;;;2.70;;
21611;SDS011;47005;52.292;13.452;2023-04-25T04:39:47;7.03;;;3.17;;
21611;SDS011;47005;52.292;13.452;2023-04-25T04:42:13;6.43;;;3.07;;
21611;SDS011;47005;52.292;13.452;2023-04-25T04:44:39;7.93;;;3.07;;
21611;SDS011;47005;52.292;13.452;2023-04-25T04:47:04;9.67;;;3.30;;
21611;SDS011;47005;52.292;13.452;2023-04-25T04:49:31;10.13;;;4.10;;
21611;SDS011;47005;52.292;13.452;2023-04-25T04:51:57;9.83;;;3.33;;
21611;SDS011;47005;52.292;13.452;2023-04-25T04:54:24;6.63;;;2.73;;
21611;SDS011;47005;52.292;13.452;2023-04-25T04:56:50;5.07;;;2.97;;
21611;SDS011;47005;52.292;13.452;2023-04-25T04:59:17;8.57;;;3.53;;
21611;SDS011;47005;52.292;13.452;2023-04-25T05:01:42;5.60;;;3.80;;
21611;SDS011;47005;52.292;13.452;2023-04-25T05:04:08;8.93;;;2.80;;
21611;SDS011;47005;52.292;13.452;2023-04-25T05:06:34;9.87;;;3.50;;
21611;SDS011;47005;52.292;13.452;2023-04-25T05:09:03;5.77;;;3.50;;
21611;SDS011;47005;52.292;13.452;2023-04-25T05:11:29;7.20;;;3.57;;
21611;SDS011;47005;52.292;13.452;2023-04-25T05:13:54;10.10;;;4.00;;
21611;SDS011;47005;52.292;13.452;2023-04-25T05:16:20;5.17;;;3.40;;
21611;SDS011;47005;52.292;13.452;2023-04-25T05:18:46;6.97;;;3.60;;
21611;SDS011;47005;52.292;13.452;2023-04-25T05:21:12;6.83;;;3.13;;
21611;SDS011;47005;52.292;13.452;2023-04-25T05:23:38;6.40;;;2.97;;
21611;SDS011;47005;52.292;13.452;2023-04-25T05:26:04;5.27;;;3.30;;
21611;SDS011;47005;52.292;13.452;2023-04-25T05:28:30;8.93;;;3.70;;
21611;SDS011;47005;52.292;13.452;2023-04-25T05:30:56;5.23;;;3.27;;
21611;SDS011;47005;52.292;13.452;2023-04-25T05:33:21;6.77;;;3.50;;
21611;SDS011;47005;52.292;13.452;2023-04-25T05:35:47;7.60;;;3.23;;
21611;SDS011;47005;52.292;13.452;2023-04-25T05:38:13;8.10;;;3.43;;
21611;SDS011;47005;52.292;13.452;2023-04-25T05:40:38;7.03;;;3.53;;
21611;SDS011;47005;52.292;13.452;2023-04-25T05:43:04;7.33;;;3.70;;
21611;SDS011;47005;52.292;13.452;2023-04-25T05:45:30;8.17;;;3.27;;
21611;SDS011;47005;52.292;13.452;2023-04-25T05:47:55;8.40;;;4.07;;
21611;SDS011;47005;52.292;13.452;2023-04-25T05:50:21;8.47;;;3.13;;
21611;SDS011;47005;52.292;13.452;2023-04-25T05:52:47;8.90;;;4.00;;
21611;SDS011;47005;52.292;13.452;2023-04-25T05:55:12;6.57;;;3.47;;
21611;SDS011;47005;52.292;13.452;2023-04-25T05:57:38;10.17;;;4.07;;
21611;SDS011;47005;52.292;13.452;2023-04-25T06:00:07;7.63;;;3.73;;
21611;SDS011;47005;52.292;13.452;2023-04-25T06:02:34;4.23;;;2.87;;
21611;SDS011;47005;52.292;13.452;2023-04-25T06:05:00;9.67;;;3.57;;
21611;SDS011;47005;52.292;13.452;2023-04-25T06:07:28;7.00;;;3.27;;
21611;SDS011;47005;52.292;13.452;2023-04-25T06:09:54;8.77;;;2.73;;
21611;SDS011;47005;52.292;13.452;2023-04-25T06:12:20;8.50;;;3.13;;
21611;SDS011;47005;52.292;13.452;2023-04-25T06:14:46;8.77;;;3.40;;
21611;SDS011;47005;52.292;13.452;2023-04-25T06:17:12;4.60;;;3.20;;
21611;SDS011;47005;52.292;13.452;2023-04-25T06:19:37;9.03;;;3.20;;
21611;SDS011;47005;52.292;13.452;2023-04-25T06:22:03;7.40;;;3.53;;
21611;SDS011;47005;52.292;13.452;2023-04-25T06:24:29;9.27;;;4.27;;
21611;SDS011;47005;52.292;13.452;2023-04-25T06:26:55;6.70;;;3.23;;
21611;SDS011;47005;52.292;13.452;2023-04-25T06:29:20;6.00;;;3.37;;
21611;SDS011;47005;52.292;13.452;2023-04-25T06:31:47;7.17;;;3.77;;
21611;SDS011;47005;52.292;13.452;2023-04-25T06:34:12;4.20;;;2.90;;
21611;SDS011;47005;52.292;13.452;2023-04-25T06:36:38;11.37;;;3.70;;
21611;SDS011;47005;52.292;13.452;2023-04-25T06:39:09;8.40;;;3.53;;
21611;SDS011;47005;52.292;13.452;2023-04-25T06:41:35;7.17;;;3.67;;
21611;SDS011;47005;52.292;13.452;2023-04-25T06:44:01;6.47;;;4.37;;
21611;SDS011;47005;52.292;13.452;2023-04-25T06:46:27;10.60;;;4.07;;
21611;SDS011;47005;52.292;13.452;2023-04-25T06:48:52;6.27;;;3.27;;
21611;SDS011;47005;52.292;13.452;2023-04-25T06:51:21;11.60;;;3.77;;
21611;SDS011;47005;52.292;13.452;2023-04-25T06:53:47;6.97;;;3.50;;
21611;SDS011;47005;52.292;13.452;2023-04-25T06:56:12;8.40;;;3.20;;
21611;SDS011;47005;52.292;13.452;2023-04-25T06:58:38;5.47;;;2.70;;
21611;SDS011;47005;52.292;13.452;2023-04-25T07:01:04;6.93;;;3.10;;
21611;SDS011;47005;52.292;13.452;2023-04-25T07:03:30;11.57;;;3.77;;
21611;SDS011;47005;52.292;13.452;2023-04-25T07:05:55;9.90;;;3.17;;
21611;SDS011;47005;52.292;13.452;2023-04-25T07:08:21;5.70;;;2.93;;
21611;SDS011;47005;52.292;13.452;2023-04-25T07:10:46;4.33;;;1.80;;
21611;SDS011;47005;52.292;13.452;2023-04-25T07:13:12;8.23;;;3.47;;
21611;SDS011;47005;52.292;13.452;2023-04-25T07:15:38;5.20;;;2.97;;
21611;SDS011;47005;52.292;13.452;2023-04-25T07:18:03;6.43;;;2.63;;
21611;SDS011;47005;52.292;13.452;2023-04-25T07:20:29;6.20;;;3.10;;
21611;SDS011;47005;52.292;13.452;2023-04-25T07:22:56;8.40;;;3.33;;
21611;SDS011;47005;52.292;13.452;2023-04-25T07:25:22;4.10;;;2.50;;
21611;SDS011;47005;52.292;13.452;2023-04-25T07:27:47;8.40;;;3.07;;
21611;SDS011;47005;52.292;13.452;2023-04-25T07:30:13;8.73;;;3.33;;
21611;SDS011;47005;52.292;13.452;2023-04-25T07:32:39;6.10;;;3.07;;
21611;SDS011;47005;52.292;13.452;2023-04-25T07:35:05;7.33;;;3.07;;
21611;SDS011;47005;52.292;13.452;2023-04-25T07:37:32;7.03;;;2.40;;
21611;SDS011;47005;52.292;13.452;2023-04-25T07:39:58;9.00;;;2.63;;
21611;SDS011;47005;52.292;13.452;2023-04-25T07:42:24;4.87;;;2.23;;
21611;SDS011;47005;52.292;13.452;2023-04-25T07:44:50;4.77;;;2.30;;
21611;SDS011;47005;52.292;13.452;2023-04-25T07:47:16;5.43;;;2.30;;
21611;SDS011;47005;52.292;13.452;2023-04-25T07:49:44;3.03;;;1.57;;
21611;SDS011;47005;52.292;13.452;2023-04-25T07:52:10;4.57;;;1.57;;
21611;SDS011;47005;52.292;13.452;2023-04-25T07:54:37;10.60;;;2.67;;
21611;SDS011;47005;52.292;13.452;2023-04-25T07:57:03;12.57;;;2.80;;
21611;SDS011;47005;52.292;13.452;2023-04-25T07:59:29;9.50;;;3.17;;
21611;SDS011;47005;52.292;13.452;2023-04-25T08:01:54;4.70;;;2.33;;
21611;SDS011;47005;52.292;13.452;2023-04-25T08:04:22;4.30;;;2.07;;
21611;SDS011;47005;52.292;13.452;2023-04-25T08:06:48;8.70;;;2.97;;
21611;SDS011;47005;52.292;13.452;2023-04-25T08:09:13;12.93;;;2.80;;
21611;SDS011;47005;52.292;13.452;2023-04-25T08:11:40;8.67;;;3.13;;
21611;SDS011;47005;52.292;13.452;2023-04-25T08:14:06;12.60;;;3.27;;
21611;SDS011;47005;52.292;13.452;2023-04-25T08:16:32;10.73;;;3.13;;
21611;SDS011;47005;52.292;13.452;2023-04-25T08:18:59;13.50;;;3.00;;
21611;SDS011;47005;52.292;13.452;2023-04-25T08:21:25;5.13;;;2.03;;
21611;SDS011;47005;52.292;13.452;2023-04-25T08:23:51;15.77;;;2.83;;
21611;SDS011;47005;52.292;13.452;2023-04-25T08:26:17;10.60;;;2.97;;
21611;SDS011;47005;52.292;13.452;2023-04-25T08:28:43;7.43;;;2.97;;
21611;SDS011;47005;52.292;13.452;2023-04-25T08:31:09;10.33;;;3.00;;
21611;SDS011;47005;52.292;13.452;2023-04-25T08:33:35;13.27;;;2.67;;
21611;SDS011;47005;52.292;13.452;2023-04-25T08:36:01;11.33;;;2.80;;
21611;SDS011;47005;52.292;13.452;2023-04-25T08:38:26;12.17;;;2.93;;
21611;SDS011;47005;52.292;13.452;2023-04-25T08:40:52;6.63;;;2.80;;
21611;SDS011;47005;52.292;13.452;2023-04-25T08:43:21;11.13;;;3.23;;
21611;SDS011;47005;52.292;13.452;2023-04-25T08:45:50;10.67;;;3.40;;
21611;SDS011;47005;52.292;13.452;2023-04-25T08:48:21;11.27;;;2.93;;
21611;SDS011;47005;52.292;13.452;2023-04-25T08:50:49;7.27;;;2.97;;
21611;SDS011;47005;52.292;13.452;2023-04-25T08:53:17;8.50;;;3.03;;
21611;SDS011;47005;52.292;13.452;2023-04-25T08:55:47;9.33;;;2.53;;
21611;SDS011;47005;52.292;13.452;2023-04-25T08:58:14;9.30;;;3.67;;
21611;SDS011;47005;52.292;13.452;2023-04-25T09:00:40;8.40;;;2.20;;
21611;SDS011;47005;52.292;13.452;2023-04-25T09:03:06;16.17;;;3.27;;
21611;SDS011;47005;52.292;13.452;2023-04-25T09:05:32;9.37;;;3.27;;
21611;SDS011;47005;52.292;13.452;2023-04-25T09:07:59;6.43;;;2.30;;
21611;SDS011;47005;52.292;13.452;2023-04-25T09:10:25;6.67;;;2.80;;
21611;SDS011;47005;52.292;13.452;2023-04-25T09:15:50;15.70;;;3.67;;
21611;SDS011;47005;52.292;13.452;2023-04-25T09:20:52;20.50;;;3.50;;
21611;SDS011;47005;52.292;13.452;2023-04-25T09:23:19;8.67;;;2.60;;
21611;SDS011;47005;52.292;13.452;2023-04-25T09:25:49;7.07;;;2.73;;
21611;SDS011;47005;52.292;13.452;2023-04-25T09:28:16;7.80;;;2.70;;
21611;SDS011;47005;52.292;13.452;2023-04-25T09:30:49;11.37;;;2.47;;
21611;SDS011;47005;52.292;13.452;2023-04-25T09:33:14;8.63;;;3.43;;
21611;SDS011;47005;52.292;13.452;2023-04-25T09:35:44;7.40;;;2.40;;
21611;SDS011;47005;52.292;13.452;2023-04-25T09:38:14;10.23;;;2.50;;
21611;SDS011;47005;52.292;13.452;2023-04-25T09:40:44;13.63;;;2.53;;
21611;SDS011;47005;52.292;13.452;2023-04-25T09:43:20;12.23;;;2.90;;
21611;SDS011;47005;52.292;13.452;2023-04-25T09:45:46;7.00;;;2.30;;
21611;SDS011;47005;52.292;13.452;2023-04-25T09:48:19;8.70;;;2.13;;
21611;SDS011;47005;52.292;13.452;2023-04-25T09:51:05;9.70;;;3.30;;
21611;SDS011;47005;52.292;13.452;2023-04-25T09:53:36;6.40;;;2.50;;
21611;SDS011;47005;52.292;13.452;2023-04-25T09:56:07;9.63;;;2.80;;
21611;SDS011;47005;52.292;13.452;2023-04-25T09:58:35;12.17;;;3.00;;
21611;SDS011;47005;52.292;13.452;2023-04-25T10:01:02;8.50;;;2.03;;
21611;SDS011;47005;52.292;13.452;2023-04-25T10:03:30;8.03;;;2.20;;
21611;SDS011;47005;52.292;13.452;2023-04-25T10:06:02;12.70;;;2.30;;
21611;SDS011;47005;52.292;13.452;2023-04-25T10:08:32;6.50;;;1.80;;
21611;SDS011;47005;52.292;13.452;2023-04-25T10:11:00;8.93;;;2.53;;
21611;SDS011;47005;52.292;13.452;2023-04-25T10:13:28;9.07;;;2.50;;
21611;SDS011;47005;52.292;13.452;2023-04-25T10:15:56;4.93;;;2.20;;
21611;SDS011;47005;52.292;13.452;2023-04-25T10:18:23;5.57;;;2.17;;
21611;SDS011;47005;52.292;13.452;2023-04-25T10:20:50;5.73;;;2.53;;
21611;SDS011;47005;52.292;13.452;2023-04-25T10:23:15;7.47;;;2.80;;
21611;SDS011;47005;52.292;13.452;2023-04-25T10:25:42;7.53;;;2.70;;
21611;SDS011;47005;52.292;13.452;2023-04-25T10:28:08;8.07;;;2.47;;
21611;SDS011;47005;52.292;13.452;2023-04-25T10:30:36;6.97;;;1.93;;
21611;SDS011;47005;52.292;13.452;2023-04-25T10:33:03;7.63;;;1.57;;
21611;SDS011;47005;52.292;13.452;2023-04-25T10:35:42;4.07;;;1.87;;
21611;SDS011;47005;52.292;13.452;2023-04-25T10:38:10;5.47;;;2.00;;
21611;SDS011;47005;52.292;13.452;2023-04-25T10:40:38;12.10;;;2.40;;
21611;SDS011;47005;52.292;13.452;2023-04-25T10:46:18;6.97;;;2.40;;
21611;SDS011;47005;52.292;13.452;2023-04-25T10:53:46;6.40;;;1.93;;
21611;SDS011;47005;52.292;13.452;2023-04-25T10:56:22;5.10;;;1.77;;
21611;SDS011;47005;52.292;13.452;2023-04-25T10:58:50;8.17;;;3.13;;
21611;SDS011;47005;52.292;13.452;2023-04-25T11:01:25;6.93;;;2.00;;
21611;SDS011;47005;52.292;13.452;2023-04-25T11:03:56;2.90;;;1.37;;
21611;SDS011;47005;52.292;13.452;2023-04-25T11:06:25;6.30;;;1.67;;
21611;SDS011;47005;52.292;13.452;2023-04-25T11:08:59;10.53;;;2.10;;
21611;SDS011;47005;52.292;13.452;2023-04-25T11:11:26;2.93;;;1.50;;
21611;SDS011;47005;52.292;13.452;2023-04-25T11:13:53;5.70;;;1.33;;
21611;SDS011;47005;52.292;13.452;2023-04-25T11:16:19;7.83;;;2.10;;
21611;SDS011;47005;52.292;13.452;2023-04-25T11:18:45;4.43;;;1.83;;
21611;SDS011;47005;52.292;13.452;2023-04-25T11:21:11;13.00;;;2.40;;
21611;SDS011;47005;52.292;13.452;2023-04-25T11:23:37;8.03;;;1.70;;
21611;SDS011;47005;52.292;13.452;2023-04-25T11:26:03;8.47;;;2.20;;
21611;SDS011;47005;52.292;13.452;2023-04-25T11:28:29;8.17;;;2.20;;
21611;SDS011;47005;52.292;13.452;2023-04-25T11:30:55;5.90;;;2.00;;
21611;SDS011;47005;52.292;13.452;2023-04-25T11:33:24;9.60;;;2.63;;
21611;SDS011;47005;52.292;13.452;2023-04-25T11:35:52;4.23;;;1.97;;
21611;SDS011;47005;52.292;13.452;2023-04-25T11:38:19;5.17;;;1.97;;
21611;SDS011;47005;52.292;13.452;2023-04-25T11:40:49;7.93;;;1.80;;
21611;SDS011;47005;52.292;13.452;2023-04-25T11:43:16;9.27;;;1.80;;
21611;SDS011;47005;52.292;13.452;2023-04-25T11:45:45;13.37;;;2.40;;
21611;SDS011;47005;52.292;13.452;2023-04-25T11:48:12;11.10;;;2.53;;
21611;SDS011;47005;52.292;13.452;2023-04-25T11:50:38;6.30;;;1.93;;
21611;SDS011;47005;52.292;13.452;2023-04-25T11:53:04;5.53;;;2.20;;
21611;SDS011;47005;52.292;13.452;2023-04-25T11:55:31;5.07;;;1.67;;
21611;SDS011;47005;52.292;13.452;2023-04-25T11:57:59;4.87;;;1.80;;
21611;SDS011;47005;52.292;13.452;2023-04-25T12:00:25;5.03;;;1.57;;
21611;SDS011;47005;52.292;13.452;2023-04-25T12:02:52;9.03;;;1.83;;
21611;SDS011;47005;52.292;13.452;2023-04-25T12:05:19;6.20;;;1.83;;
21611;SDS011;47005;52.292;13.452;2023-04-25T12:07:48;8.47;;;2.20;;
21611;SDS011;47005;52.292;13.452;2023-04-25T12:10:15;12.63;;;2.00;;
21611;SDS011;47005;52.292;13.452;2023-04-25T12:12:43;6.07;;;1.70;;
21611;SDS011;47005;52.292;13.452;2023-04-25T12:17:48;6.67;;;2.70;;
21611;SDS011;47005;52.292;13.452;2023-04-25T12:20:15;5.00;;;1.70;;
21611;SDS011;47005;52.292;13.452;2023-04-25T12:22:45;10.57;;;1.80;;
21611;SDS011;47005;52.292;13.452;2023-04-25T12:25:12;11.90;;;2.23;;
21611;SDS011;47005;52.292;13.452;2023-04-25T12:28:08;6.87;;;2.00;;
21611;SDS011;47005;52.292;13.452;2023-04-25T12:33:29;4.23;;;1.73;;
21611;SDS011;47005;52.292;13.452;2023-04-25T12:35:59;4.37;;;1.80;;
21611;SDS011;47005;52.292;13.452;2023-04-25T12:38:29;4.70;;;1.57;;
21611;SDS011;47005;52.292;13.452;2023-04-25T12:40:59;6.93;;;2.63;;
21611;SDS011;47005;52.292;13.452;2023-04-25T12:43:25;8.97;;;2.40;;
21611;SDS011;47005;52.292;13.452;2023-04-25T12:45:54;8.87;;;2.03;;
21611;SDS011;47005;52.292;13.452;2023-04-25T12:48:20;6.27;;;1.90;;
21611;SDS011;47005;52.292;13.452;2023-04-25T12:50:47;3.73;;;1.47;;
21611;SDS011;47005;52.292;13.452;2023-04-25T12:53:15;7.33;;;2.07;;
21611;SDS011;47005;52.292;13.452;2023-04-25T12:55:44;5.90;;;1.63;;
21611;SDS011;47005;52.292;13.452;2023-04-25T12:58:16;6.37;;;2.27;;
21611;SDS011;47005;52.292;13.452;2023-04-25T13:00:43;9.27;;;1.63;;
21611;SDS011;47005;52.292;13.452;2023-04-25T13:03:09;5.07;;;1.70;;
21611;SDS011;47005;52.292;13.452;2023-04-25T13:05:36;4.07;;;1.70;;
21611;SDS011;47005;52.292;13.452;2023-04-25T13:08:02;5.25;;;1.38;;
21611;SDS011;47005;52.292;13.452;2023-04-25T13:10:28;3.70;;;1.40;;
21611;SDS011;47005;52.292;13.452;2023-04-25T13:12:58;2.53;;;1.40;;
21611;SDS011;47005;52.292;13.452;2023-04-25T13:15:24;7.20;;;1.83;;
21611;SDS011;47005;52.292;13.452;2023-04-25T13:17:50;6.27;;;1.60;;
21611;SDS011;47005;52.292;13.452;2023-04-25T13:20:15;7.50;;;1.73;;
21611;SDS011;47005;52.292;13.452;2023-04-25T13:22:41;7.30;;;1.60;;
21611;SDS011;47005;52.292;13.452;2023-04-25T13:25:08;6.00;;;1.83;;
21611;SDS011;47005;52.292;13.452;2023-04-25T13:27:34;4.20;;;1.77;;
21611;SDS011;47005;52.292;13.452;2023-04-25T13:30:00;4.30;;;1.73;;
21611;SDS011;47005;52.292;13.452;2023-04-25T13:32:31;13.73;;;2.80;;
21611;SDS011;47005;52.292;13.452;2023-04-25T13:35:08;6.43;;;1.80;;
21611;SDS011;47005;52.292;13.452;2023-04-25T13:37:35;5.07;;;1.43;;
21611;SDS011;47005;52.292;13.452;2023-04-25T13:40:02;3.33;;;1.43;;
21611;SDS011;47005;52.292;13.452;2023-04-25T13:42:30;3.83;;;1.37;;
21611;SDS011;47005;52.292;13.452;2023-04-25T13:44:56;7.03;;;2.37;;
21611;SDS011;47005;52.292;13.452;2023-04-25T13:47:22;9.43;;;1.83;;
21611;SDS011;47005;52.292;13.452;2023-04-25T13:49:48;9.67;;;1.80;;
21611;SDS011;47005;52.292;13.452;2023-04-25T13:52:14;12.27;;;2.70;;
21611;SDS011;47005;52.292;13.452;2023-04-25T13:54:40;4.07;;;1.50;;
21611;SDS011;47005;52.292;13.452;2023-04-25T13:57:06;6.15;;;2.17;;
21611;SDS011;47005;52.292;13.452;2023-04-25T13:59:32;3.75;;;1.88;;
21611;SDS011;47005;52.292;13.452;2023-04-25T14:01:57;6.30;;;1.85;;
21611;SDS011;47005;52.292;13.452;2023-04-25T14:04:23;3.40;;;1.30;;
21611;SDS011;47005;52.292;13.452;2023-04-25T14:06:50;7.93;;;2.60;;
21611;SDS011;47005;52.292;13.452;2023-04-25T14:09:16;4.40;;;1.90;;
21611;SDS011;47005;52.292;13.452;2023-04-25T14:11:42;5.97;;;1.70;;
21611;SDS011;47005;52.292;13.452;2023-04-25T14:14:08;10.75;;;1.92;;
21611;SDS011;47005;52.292;13.452;2023-04-25T14:16:34;6.82;;;1.90;;
21611;SDS011;47005;52.292;13.452;2023-04-25T14:19:00;6.72;;;2.10;;
21611;SDS011;47005;52.292;13.452;2023-04-25T14:21:26;4.77;;;1.53;;
21611;SDS011;47005;52.292;13.452;2023-04-25T14:23:53;4.47;;;1.98;;
21611;SDS011;47005;52.292;13.452;2023-04-25T14:26:19;7.43;;;1.73;;
21611;SDS011;47005;52.292;13.452;2023-04-25T14:28:44;4.30;;;1.47;;
21611;SDS011;47005;52.292;13.452;2023-04-25T14:31:10;7.73;;;2.20;;
21611;SDS011;47005;52.292;13.452;2023-04-25T14:33:36;6.40;;;2.27;;
21611;SDS011;47005;52.292;13.452;2023-04-25T14:36:04;8.70;;;1.87;;
21611;SDS011;47005;52.292;13.452;2023-04-25T14:38:30;4.70;;;2.37;;
21611;SDS011;47005;52.292;13.452;2023-04-25T14:40:56;6.83;;;2.10;;
21611;SDS011;47005;52.292;13.452;2023-04-25T14:43:24;8.07;;;1.90;;
21611;SDS011;47005;52.292;13.452;2023-04-25T14:45:50;3.10;;;1.30;;
21611;SDS011;47005;52.292;13.452;2023-04-25T14:48:16;5.73;;;1.63;;
21611;SDS011;47005;52.292;13.452;2023-04-25T14:50:44;11.37;;;1.93;;